createdAt,value
2023-04-14T00:01:59.784Z,50.85
2023-04-14T00:04:28.404Z,50.19
2023-04-14T00:06:58.773Z,50.51
2023-04-14T00:09:27.329Z,50.63
2023-04-14T00:11:57.622Z,50.89
2023-04-14T00:14:26.030Z,50.56
2023-04-14T00:16:54.596Z,50.52
2023-04-14T00:19:23.096Z,50.75
2023-04-14T00:21:51.603Z,51.00
2023-04-14T00:24:20.048Z,52.11
2023-04-14T00:26:48.462Z,52.40
2023-04-14T00:29:18.321Z,51.72
2023-04-14T00:31:46.641Z,52.30
2023-04-14T00:34:15.073Z,51.96
2023-04-14T00:36:43.600Z,52.28
2023-04-14T00:39:11.988Z,51.86
2023-04-14T00:41:40.435Z,52.60
2023-04-14T00:44:08.815Z,51.71
2023-04-14T00:46:38.826Z,51.74
2023-04-14T00:49:07.886Z,52.20
2023-04-14T00:51:37.264Z,52.38
2023-04-14T00:54:09.013Z,52.98
2023-04-14T00:56:37.604Z,52.71
2023-04-14T00:59:08.324Z,53.36
2023-04-14T01:01:38.801Z,52.84
2023-04-14T01:04:08.032Z,53.34
2023-04-14T01:06:37.804Z,52.94
2023-04-14T01:09:06.600Z,53.91
2023-04-14T01:11:46.277Z,53.92
2023-04-14T01:14:24.348Z,53.91
2023-04-14T01:16:59.146Z,54.72
2023-04-14T01:19:43.914Z,53.64
2023-04-14T01:22:16.107Z,54.70
2023-04-14T01:25:07.651Z,54.34
2023-04-14T01:27:45.103Z,55.00
2023-04-14T01:30:46.877Z,54.93
2023-04-14T01:33:22.099Z,55.21
2023-04-14T01:35:58.300Z,55.32
2023-04-14T01:38:31.059Z,55.14
2023-04-14T01:41:04.235Z,55.72
2023-04-14T01:43:35.296Z,56.08
2023-04-14T01:46:08.995Z,56.01
2023-04-14T01:48:39.364Z,55.87
2023-04-14T01:51:09.302Z,55.20
2023-04-14T01:53:41.588Z,55.44
2023-04-14T01:56:13.247Z,55.96
2023-04-14T01:58:43.473Z,56.05
2023-04-14T02:01:13.627Z,56.17
2023-04-14T02:03:45.225Z,56.20
2023-04-14T02:06:14.816Z,56.60
2023-04-14T02:08:43.510Z,56.47
2023-04-14T02:11:15.156Z,56.82
2023-04-14T02:13:45.607Z,56.69
2023-04-14T02:16:15.463Z,56.77
2023-04-14T02:18:46.783Z,56.73
2023-04-14T02:21:17.659Z,56.97
2023-04-14T02:23:46.766Z,57.14
2023-04-14T02:26:17.376Z,57.78
2023-04-14T02:28:51.866Z,57.38
2023-04-14T02:31:23.905Z,57.47
2023-04-14T02:33:56.630Z,57.75
2023-04-14T02:36:32.514Z,57.93
2023-04-14T02:39:05.927Z,58.16
2023-04-14T02:41:34.828Z,58.17
2023-04-14T02:44:08.445Z,58.16
2023-04-14T02:46:50.431Z,58.53
2023-04-14T02:49:22.578Z,58.79
2023-04-14T02:51:53.442Z,59.16
2023-04-14T02:54:23.349Z,59.64
2023-04-14T02:56:52.797Z,59.53
2023-04-14T02:59:27.715Z,60.60
2023-04-14T03:02:04.770Z,60.55
2023-04-14T03:04:39.764Z,60.49
2023-04-14T03:07:15.956Z,59.83
2023-04-14T03:09:44.866Z,60.30
2023-04-14T03:12:16.814Z,59.86
2023-04-14T03:14:45.882Z,59.49
2023-04-14T03:17:17.720Z,59.62
2023-04-14T03:19:49.342Z,59.14
2023-04-14T03:22:19.325Z,59.18
2023-04-14T03:24:48.415Z,59.46
2023-04-14T03:27:26.377Z,59.28
2023-04-14T03:29:59.891Z,59.63
2023-04-14T03:32:34.380Z,59.68
2023-04-14T03:35:05.036Z,59.80
2023-04-14T03:37:37.554Z,60.37
2023-04-14T03:40:09.304Z,60.74
2023-04-14T03:42:41.688Z,60.81
2023-04-14T03:45:11.701Z,60.53
2023-04-14T03:47:42.084Z,60.94
2023-04-14T03:50:15.646Z,60.78
2023-04-14T03:52:45.183Z,61.49
2023-04-14T03:55:15.176Z,61.13
2023-04-14T03:57:45.798Z,61.80
2023-04-14T04:00:16.493Z,60.71
2023-04-14T04:02:48.675Z,60.81
2023-04-14T04:05:19.457Z,60.23
2023-04-14T04:07:48.299Z,59.83
2023-04-14T04:10:17.662Z,59.39
2023-04-14T04:12:48.990Z,59.36
2023-04-14T04:15:18.587Z,59.51
2023-04-14T04:17:50.504Z,59.07
2023-04-14T04:20:23.380Z,59.45
2023-04-14T04:22:54.104Z,60.27
2023-04-14T04:25:22.560Z,60.79
2023-04-14T04:28:01.235Z,60.25
2023-04-14T04:30:32.422Z,60.83
2023-04-14T04:33:03.881Z,61.23
2023-04-14T04:35:35.878Z,61.19
2023-04-14T04:38:06.994Z,61.61
2023-04-14T04:40:38.884Z,61.83
2023-04-14T04:43:13.463Z,61.03
2023-04-14T04:46:00.954Z,61.95
2023-04-14T04:48:30.695Z,61.46
2023-04-14T04:51:00.438Z,61.47
2023-04-14T04:53:28.881Z,61.20
2023-04-14T04:55:57.501Z,61.16
2023-04-14T04:58:25.947Z,61.59
2023-04-14T05:00:54.868Z,62.22
2023-04-14T05:03:23.392Z,61.71
2023-04-14T05:05:51.745Z,61.45
2023-04-14T05:08:21.777Z,62.67
2023-04-14T05:10:50.219Z,62.37
2023-04-14T05:13:18.657Z,61.95
2023-04-14T05:15:47.195Z,62.76
2023-04-14T05:18:15.675Z,62.76
2023-04-14T05:20:44.075Z,62.45
2023-04-14T05:23:13.539Z,63.55
2023-04-14T05:25:43.402Z,63.68
2023-04-14T05:28:14.068Z,63.71
2023-04-14T05:30:42.474Z,62.86
2023-04-14T05:33:11.879Z,63.63
2023-04-14T05:35:40.619Z,63.75
2023-04-14T05:38:09.142Z,62.80
2023-04-14T05:40:37.698Z,62.74
2023-04-14T05:43:07.703Z,62.64
2023-04-14T05:45:36.220Z,62.36
2023-04-14T05:48:05.049Z,62.76
2023-04-14T05:50:35.037Z,62.43
2023-04-14T05:53:03.380Z,61.89
2023-04-14T05:55:32.575Z,62.54
2023-04-14T05:58:01.019Z,62.32
2023-04-14T06:00:31.227Z,62.51
2023-04-14T06:02:59.848Z,61.02
2023-04-14T06:05:28.563Z,61.02
2023-04-14T06:07:57.186Z,60.77
2023-04-14T06:10:25.537Z,61.13
2023-04-14T06:12:53.856Z,60.65
2023-04-14T06:15:22.240Z,60.47
2023-04-14T06:17:52.373Z,59.93
2023-04-14T06:20:22.044Z,59.38
2023-04-14T06:22:50.620Z,58.81
2023-04-14T06:25:19.063Z,58.11
2023-04-14T06:27:47.379Z,57.48
2023-04-14T06:30:17.073Z,56.68
2023-04-14T06:32:45.729Z,55.29
2023-04-14T06:35:29.515Z,54.32
2023-04-14T06:38:00.782Z,53.05
2023-04-14T06:40:29.233Z,51.27
2023-04-14T06:42:57.728Z,49.93
2023-04-14T06:45:26.370Z,48.51
2023-04-14T06:47:55.003Z,46.77
2023-04-14T06:50:24.796Z,45.59
2023-04-14T06:52:53.130Z,43.90
2023-04-14T06:55:21.884Z,42.08
2023-04-14T06:57:50.387Z,41.42
2023-04-14T07:00:19.723Z,38.74
2023-04-14T07:02:48.329Z,36.76
2023-04-14T07:05:17.429Z,36.08
2023-04-14T07:07:47.206Z,35.47
2023-04-14T07:10:15.724Z,34.55
2023-04-14T07:12:44.092Z,33.92
2023-04-14T07:15:14.411Z,33.06
2023-04-14T07:17:43.855Z,32.34
2023-04-14T07:20:12.746Z,31.95
2023-04-14T07:22:41.177Z,32.02
2023-04-14T07:25:11.539Z,32.58
2023-04-14T07:27:47.164Z,32.28
2023-04-14T07:30:21.730Z,32.80
2023-04-14T07:32:50.074Z,31.73
2023-04-14T07:35:19.749Z,32.35
2023-04-14T07:37:48.100Z,32.51
2023-04-14T07:40:17.889Z,33.15
2023-04-14T07:42:46.520Z,33.71
2023-04-14T07:45:14.868Z,33.68
2023-04-14T07:47:43.312Z,33.83
2023-04-14T07:50:12.117Z,33.56
2023-04-14T07:52:40.615Z,33.21
2023-04-14T07:55:09.167Z,33.87
2023-04-14T07:57:39.165Z,33.96
2023-04-14T08:00:09.808Z,34.50
2023-04-14T08:02:40.970Z,34.34
2023-04-14T08:05:09.608Z,34.56
2023-04-14T08:07:38.804Z,34.76
2023-04-14T08:10:08.034Z,35.13
2023-04-14T08:12:36.650Z,35.43
2023-04-14T08:15:07.088Z,35.77
2023-04-14T08:17:35.515Z,35.50
2023-04-14T08:20:04.046Z,35.87
2023-04-14T08:22:32.478Z,35.50
2023-04-14T08:25:01.002Z,35.70
2023-04-14T08:27:29.410Z,35.67
2023-04-14T08:29:57.837Z,36.24
2023-04-14T08:32:28.591Z,36.29
2023-04-14T08:35:39.190Z,36.67
2023-04-14T08:37:45.736Z,36.52
2023-04-14T08:40:17.012Z,36.32
2023-04-14T08:42:46.080Z,36.32
2023-04-14T08:45:14.976Z,36.42
2023-04-14T08:47:47.312Z,36.76
2023-04-14T08:50:19.792Z,35.93
2023-04-14T08:52:50.668Z,36.27
2023-04-14T08:55:20.673Z,36.52
2023-04-14T08:57:50.443Z,36.74
2023-04-14T09:00:20.000Z,36.30
2023-04-14T09:02:50.653Z,36.70
2023-04-14T09:05:20.225Z,36.66
2023-04-14T09:07:49.257Z,36.40
2023-04-14T09:10:18.713Z,35.92
2023-04-14T09:12:47.305Z,35.10
2023-04-14T09:15:17.061Z,34.95
2023-04-14T09:17:45.753Z,34.96
2023-04-14T09:20:34.645Z,34.47
2023-04-14T09:23:05.044Z,35.18
2023-04-14T09:25:34.454Z,34.80
2023-04-14T09:28:02.948Z,33.92
2023-04-14T09:30:32.536Z,34.02
2023-04-14T09:33:01.261Z,34.34
2023-04-14T09:35:46.598Z,34.75
2023-04-14T09:38:15.320Z,34.39
2023-04-14T09:40:45.165Z,34.02
2023-04-14T09:43:27.096Z,33.27
2023-04-14T09:45:56.747Z,34.20
2023-04-14T09:48:26.100Z,34.26
2023-04-14T09:51:00.588Z,34.49
2023-04-14T09:53:31.501Z,34.73
2023-04-14T09:56:02.812Z,35.26
2023-04-14T09:58:32.823Z,34.75
2023-04-14T10:01:01.399Z,34.38
2023-04-14T10:03:39.584Z,34.05
2023-04-14T10:06:10.951Z,34.72
2023-04-14T10:08:41.202Z,34.35
2023-04-14T10:11:20.145Z,34.58
2023-04-14T10:13:49.795Z,34.88
2023-04-14T10:16:18.511Z,35.44
2023-04-14T10:18:47.853Z,35.59
2023-04-14T10:21:18.210Z,35.53
2023-04-14T10:23:47.307Z,36.06
2023-04-14T10:26:16.062Z,35.56
2023-04-14T10:28:46.844Z,34.94
2023-04-14T10:31:20.346Z,34.60
2023-04-14T10:33:48.933Z,34.96
2023-04-14T10:36:26.739Z,36.18
2023-04-14T10:39:02.205Z,34.51
2023-04-14T10:41:46.071Z,34.69
2023-04-14T10:44:27.484Z,34.27
2023-04-14T10:46:56.936Z,34.18
2023-04-14T10:49:30.469Z,33.12
2023-04-14T10:52:02.657Z,32.66
2023-04-14T10:54:50.187Z,32.47
2023-04-14T10:57:20.196Z,33.00
2023-04-14T10:59:49.416Z,33.58
2023-04-14T11:02:30.495Z,32.32
2023-04-14T11:05:00.595Z,32.54
2023-04-14T11:07:32.822Z,32.88
2023-04-14T11:10:22.016Z,34.30
2023-04-14T11:12:57.520Z,33.60
2023-04-14T11:15:26.087Z,33.87
2023-04-14T11:17:55.221Z,33.58
2023-04-14T11:20:24.376Z,34.07
2023-04-14T11:22:54.905Z,34.40
2023-04-14T11:25:24.776Z,34.04
2023-04-14T11:27:54.093Z,34.88
2023-04-14T11:30:23.128Z,34.78
2023-04-14T11:32:53.722Z,35.07
2023-04-14T11:35:25.537Z,35.78
2023-04-14T11:37:56.301Z,35.39
2023-04-14T11:40:26.607Z,35.32
2023-04-14T11:42:56.578Z,36.04
2023-04-14T11:45:29.182Z,35.21
2023-04-14T11:47:59.517Z,36.16
2023-04-14T11:50:29.044Z,36.60
2023-04-14T11:52:59.933Z,36.78
2023-04-14T11:55:29.063Z,36.30
2023-04-14T11:57:58.246Z,35.91
2023-04-14T12:00:28.215Z,35.08
2023-04-14T12:02:57.937Z,35.08
2023-04-14T12:05:31.267Z,34.17
2023-04-14T12:08:03.270Z,34.13
2023-04-14T12:10:32.250Z,34.36
2023-04-14T12:13:02.152Z,34.53
2023-04-14T12:15:31.677Z,34.81
2023-04-14T12:18:00.666Z,35.30
2023-04-14T12:20:30.486Z,35.97
2023-04-14T12:23:04.660Z,36.39
2023-04-14T12:25:34.169Z,36.60
2023-04-14T12:28:06.547Z,36.73
2023-04-14T12:30:36.020Z,36.61
2023-04-14T12:33:11.526Z,36.98
2023-04-14T12:35:40.763Z,37.29
2023-04-14T12:38:14.810Z,37.11
2023-04-14T12:40:46.126Z,37.26
2023-04-14T12:43:15.249Z,37.54
2023-04-14T12:45:45.112Z,37.90
2023-04-14T12:48:14.454Z,37.48
2023-04-14T12:50:42.921Z,38.33
2023-04-14T12:53:29.637Z,37.62
2023-04-14T12:56:08.951Z,37.42
2023-04-14T12:58:38.060Z,38.02
2023-04-14T13:01:08.000Z,37.71
2023-04-14T13:03:46.479Z,37.92
2023-04-14T13:06:18.097Z,37.90
2023-04-14T13:08:49.341Z,38.19
2023-04-14T13:11:19.107Z,37.67
2023-04-14T13:13:48.565Z,38.41
2023-04-14T13:16:19.397Z,38.16
2023-04-14T13:18:49.459Z,37.41
2023-04-14T13:21:18.019Z,37.65
2023-04-14T13:23:48.113Z,37.68
2023-04-14T13:26:16.546Z,37.55
2023-04-14T13:28:45.216Z,37.85
2023-04-14T13:31:17.479Z,37.71
2023-04-14T13:33:46.246Z,38.00
2023-04-14T13:36:14.692Z,38.17
2023-04-14T13:38:43.257Z,38.57
2023-04-14T13:41:15.419Z,38.55
2023-04-14T13:43:44.054Z,38.74
2023-04-14T13:46:12.886Z,38.51
2023-04-14T13:48:41.696Z,39.10
2023-04-14T13:51:10.065Z,39.35
2023-04-14T13:53:38.583Z,39.10
2023-04-14T13:56:07.277Z,39.15
2023-04-14T13:58:38.579Z,38.98
2023-04-14T14:01:11.423Z,39.25
2023-04-14T14:03:41.375Z,39.39
2023-04-14T14:06:10.084Z,40.05
2023-04-14T14:08:38.587Z,40.13
2023-04-14T14:11:07.264Z,40.84
2023-04-14T14:13:39.852Z,41.25
2023-04-14T14:16:10.080Z,43.50
2023-04-14T14:18:38.645Z,45.57
2023-04-14T14:21:07.385Z,46.71
2023-04-14T14:23:35.824Z,48.73
2023-04-14T14:26:04.268Z,50.39
2023-04-14T14:28:32.772Z,51.38
2023-04-14T14:31:03.849Z,52.29
2023-04-14T14:33:34.016Z,53.30
2023-04-14T14:36:02.854Z,54.31
2023-04-14T14:38:31.485Z,55.38
2023-04-14T14:40:59.853Z,56.29
2023-04-14T14:43:30.286Z,57.18
2023-04-14T14:45:58.772Z,57.72
2023-04-14T14:48:28.791Z,58.73
2023-04-14T14:50:57.157Z,58.98
2023-04-14T14:53:25.545Z,58.87
2023-04-14T14:55:53.899Z,59.36
2023-04-14T14:58:22.695Z,59.68
2023-04-14T15:00:51.239Z,59.83
2023-04-14T15:03:20.607Z,59.74
2023-04-14T15:05:52.881Z,59.70
2023-04-14T15:08:21.623Z,59.91
2023-04-14T15:10:52.251Z,60.23
2023-04-14T15:13:21.150Z,60.51
2023-04-14T15:15:49.503Z,60.54
2023-04-14T15:18:17.978Z,60.85
2023-04-14T15:20:46.334Z,61.03
2023-04-14T15:23:16.239Z,61.74
2023-04-14T15:25:44.662Z,62.43
2023-04-14T15:28:14.459Z,63.30
2023-04-14T15:30:43.014Z,64.18
2023-04-14T15:33:11.478Z,64.44
2023-04-14T15:35:40.569Z,64.67
2023-04-14T15:38:08.899Z,65.14
2023-04-14T15:40:39.945Z,66.02
2023-04-14T15:43:08.552Z,66.27
2023-04-14T15:45:37.003Z,66.68
2023-04-14T15:48:05.642Z,67.30
2023-04-14T15:50:34.066Z,67.41
2023-04-14T15:53:13.384Z,67.18
2023-04-14T15:55:44.519Z,67.66
2023-04-14T15:58:12.944Z,68.14
2023-04-14T16:00:41.652Z,68.23
2023-04-14T16:03:12.094Z,68.55
2023-04-14T16:05:40.949Z,68.56
2023-04-14T16:08:09.531Z,68.71
2023-04-14T16:10:40.611Z,68.43
2023-04-14T16:13:10.658Z,68.76
2023-04-14T16:15:39.057Z,68.65
2023-04-14T16:18:07.523Z,69.11
2023-04-14T16:20:35.983Z,68.79
2023-04-14T16:23:04.327Z,68.89
2023-04-14T16:25:32.766Z,69.04
2023-04-14T16:28:01.166Z,69.38
2023-04-14T16:30:30.924Z,69.43
2023-04-14T16:32:59.338Z,69.83
2023-04-14T16:35:27.709Z,70.39
2023-04-14T16:37:56.193Z,70.55
2023-04-14T16:40:24.751Z,70.00
2023-04-14T16:42:53.218Z,69.80
2023-04-14T16:45:21.572Z,69.62
2023-04-14T16:47:51.467Z,69.56
2023-04-14T16:50:19.898Z,70.06
2023-04-14T16:52:48.290Z,69.98
2023-04-14T16:55:17.149Z,69.63
2023-04-14T16:57:45.591Z,69.90
2023-04-14T17:00:14.911Z,70.83
2023-04-14T17:02:43.575Z,70.67
2023-04-14T17:05:16.223Z,70.80
2023-04-14T17:07:45.121Z,70.09
2023-04-14T17:10:14.286Z,70.27
2023-04-14T17:12:43.373Z,70.10
2023-04-14T17:15:12.330Z,69.83
2023-04-14T17:17:40.735Z,70.28
2023-04-14T17:20:10.637Z,70.40
2023-04-14T17:22:40.534Z,70.40
2023-04-14T17:25:10.893Z,70.82
2023-04-14T17:27:39.397Z,70.98
2023-04-14T17:30:10.878Z,71.77
2023-04-14T17:32:41.842Z,72.19
2023-04-14T17:35:11.462Z,72.64
2023-04-14T17:37:41.753Z,72.17
2023-04-14T17:40:11.610Z,72.36
2023-04-14T17:42:40.053Z,72.38
2023-04-14T17:45:09.950Z,72.78
2023-04-14T17:47:39.994Z,73.54
2023-04-14T17:50:10.346Z,73.80
2023-04-14T17:52:40.478Z,74.03
2023-04-14T17:55:10.464Z,73.70
2023-04-14T17:57:39.348Z,73.92
2023-04-14T18:00:10.384Z,73.57
2023-04-14T18:02:41.909Z,73.06
2023-04-14T18:05:11.432Z,72.91
2023-04-14T18:07:43.363Z,71.77
2023-04-14T18:10:12.182Z,71.44
2023-04-14T18:12:41.507Z,70.94
2023-04-14T18:15:15.342Z,69.82
2023-04-14T18:17:43.923Z,68.22
2023-04-14T18:20:13.856Z,66.48
2023-04-14T18:22:43.776Z,65.63
2023-04-14T18:25:12.061Z,65.00
2023-04-14T18:30:12.924Z,64.08
2023-04-14T18:32:41.584Z,61.53
2023-04-14T18:35:10.573Z,62.73
2023-04-14T18:37:40.064Z,62.85
2023-04-14T18:40:10.960Z,62.93
2023-04-14T18:42:39.616Z,62.59
2023-04-14T18:45:09.119Z,62.51
2023-04-14T18:47:37.734Z,63.45
2023-04-14T18:50:07.651Z,63.29
2023-04-14T18:52:36.076Z,62.73
2023-04-14T18:55:05.136Z,62.69
2023-04-14T18:57:35.009Z,62.37
2023-04-14T19:00:07.169Z,62.88
2023-04-14T19:02:36.232Z,62.84
2023-04-14T19:05:04.980Z,62.75
2023-04-14T19:07:34.499Z,62.62
2023-04-14T19:10:05.078Z,62.73
2023-04-14T19:12:34.876Z,62.86
2023-04-14T19:15:03.736Z,62.92
2023-04-14T19:17:34.481Z,62.19
2023-04-14T19:20:03.018Z,62.26
2023-04-14T19:22:31.532Z,62.25
2023-04-14T19:24:59.992Z,62.39
2023-04-14T19:27:28.302Z,62.33
2023-04-14T19:29:58.263Z,62.13
2023-04-14T19:32:26.714Z,62.21
2023-04-14T19:34:55.148Z,62.74
2023-04-14T19:37:23.553Z,62.91
2023-04-14T19:39:51.967Z,62.52
2023-04-14T19:42:20.319Z,62.45
2023-04-14T19:44:48.735Z,62.48
2023-04-14T19:47:18.441Z,62.72
2023-04-14T19:49:47.013Z,63.29
2023-04-14T19:52:15.465Z,63.29
2023-04-14T19:54:44.604Z,63.11
2023-04-14T19:57:13.903Z,63.20
2023-04-14T19:59:42.619Z,62.89
2023-04-14T20:02:13.365Z,61.80
2023-04-14T20:04:45.136Z,62.00
2023-04-14T20:07:14.675Z,61.34
2023-04-14T20:09:46.708Z,61.41
2023-04-14T20:12:15.638Z,61.63
2023-04-14T20:14:45.151Z,61.86
2023-04-14T20:17:13.991Z,61.64
2023-04-14T20:19:44.669Z,61.28
2023-04-14T20:22:13.561Z,61.01
2023-04-14T20:24:41.994Z,60.61
2023-04-14T20:27:11.070Z,60.92
2023-04-14T20:29:39.380Z,60.60
2023-04-14T20:32:07.958Z,60.40
2023-04-14T20:34:36.342Z,60.45
2023-04-14T20:37:06.220Z,60.65
2023-04-14T20:39:34.691Z,60.65
2023-04-14T20:42:03.070Z,60.36
2023-04-14T20:44:31.721Z,60.88
2023-04-14T20:47:00.706Z,60.65
2023-04-14T20:49:29.664Z,60.71
2023-04-14T20:51:58.556Z,60.56
2023-04-14T20:54:28.882Z,60.47
2023-04-14T20:56:57.673Z,60.77
2023-04-14T20:59:26.374Z,60.51
2023-04-14T21:01:54.894Z,60.20
2023-04-14T21:04:24.302Z,59.79
2023-04-14T21:06:53.205Z,59.98
2023-04-14T21:09:25.138Z,59.25
2023-04-14T21:12:15.971Z,59.21
2023-04-14T21:15:29.090Z,59.08
2023-04-14T21:17:32.070Z,59.15
2023-04-14T21:20:00.486Z,59.34
2023-04-14T21:22:28.869Z,58.97
2023-04-14T21:24:57.177Z,58.80
2023-04-14T21:27:28.160Z,58.60
2023-04-14T21:29:56.618Z,58.41
2023-04-14T21:32:25.138Z,57.73
2023-04-14T21:34:53.592Z,57.41
2023-04-14T21:37:21.954Z,57.15
2023-04-14T21:39:50.443Z,57.63
2023-04-14T21:42:18.797Z,57.24
2023-04-14T21:44:49.394Z,57.37
2023-04-14T21:47:17.949Z,56.27
2023-04-14T21:49:46.315Z,56.08
2023-04-14T21:52:15.842Z,55.93
2023-04-14T21:54:46.274Z,56.32
2023-04-14T21:57:14.789Z,56.13
2023-04-14T21:59:43.182Z,56.66
2023-04-14T22:02:13.863Z,56.38
2023-04-14T22:04:42.491Z,56.71
2023-04-14T22:07:10.977Z,56.69
2023-04-14T22:09:39.498Z,56.17
2023-04-14T22:12:07.912Z,56.30
2023-04-14T22:14:37.175Z,55.78
2023-04-14T22:17:05.710Z,55.53
2023-04-14T22:19:35.896Z,55.52
2023-04-14T22:22:04.828Z,55.13
2023-04-14T22:24:33.644Z,55.21
2023-04-14T22:27:02.137Z,55.29
2023-04-14T22:29:30.480Z,55.26
2023-04-14T22:31:58.825Z,54.89
2023-04-14T22:34:27.294Z,54.17
2023-04-14T22:36:58.128Z,54.08
2023-04-14T22:39:26.626Z,54.23
2023-04-14T22:41:54.963Z,54.12
2023-04-14T22:44:23.461Z,54.26
2023-04-14T22:46:52.835Z,54.21
2023-04-14T22:49:21.564Z,54.55
2023-04-14T22:51:49.907Z,54.05
2023-04-14T22:54:19.704Z,54.02
2023-04-14T22:56:48.258Z,53.68
2023-04-14T22:59:16.947Z,54.02
2023-04-14T23:01:45.395Z,53.71
2023-04-14T23:04:13.972Z,54.02
2023-04-14T23:06:42.495Z,53.68
2023-04-14T23:09:10.973Z,53.72
2023-04-14T23:11:40.683Z,53.89
2023-04-14T23:14:09.024Z,53.96
2023-04-14T23:16:37.440Z,54.05
2023-04-14T23:19:06.060Z,53.61
2023-04-14T23:21:34.793Z,53.92
2023-04-14T23:24:03.225Z,54.17
2023-04-14T23:26:32.624Z,53.69
2023-04-14T23:29:02.778Z,53.87
2023-04-14T23:31:31.410Z,54.33
2023-04-14T23:33:59.871Z,54.17
2023-04-14T23:36:28.325Z,54.60
2023-04-14T23:38:56.642Z,54.32
2023-04-14T23:41:25.131Z,55.29
2023-04-14T23:43:53.490Z,55.09
2023-04-14T23:46:23.515Z,55.27
2023-04-14T23:48:53.307Z,55.32
2023-04-14T23:51:23.111Z,55.74
2023-04-14T23:53:51.836Z,55.62
2023-04-14T23:56:20.244Z,55.75
2023-04-14T23:58:48.730Z,55.55
